Austin, TX (78725)

6:22 PM CDT on September 01, 2015 (GMT -0500)
Austin Orchards | | Change Station
CLOSE
Current Station
Personal Weather Station
Location: Garfield, TX
Elevation: 472 ft
Nearby Weather Stations

Elev 472 ft 30.21 °N, 97.55 °W | Updated 57 seconds ago

Partly Cloudy
Partly Cloudy
88.7 °F
Feels Like 93 °F
N
15.9
Wind Variable Wind from SSE
Gusts 17.5 mph

Today
High -- | Low -- °F
--% Chance of Precip.
Yesterday
High -- | Low -- °F
Precip. -- in
7:07 AM 7:53 PM
Waning Gibbous, 85% visible
Pressure 29.91 in
Visibility 10.0 miles
Clouds Scattered Clouds 5500 ft
Mostly Cloudy 7000 ft
Mostly Cloudy 9500 ft
Mostly Cloudy 20000 ft
Heat Index 93 °F
Dew Point 68 °F
Humidity 51%
Rainfall 0.00 in
Snow Depth Not available.
UV 1.0 out of 12
Pollen 6.60 out of 12
Air Quality Not available.
Flu Activity Not available.
METAR KAUS 012253Z 11013KT 10SM SCT055 BKN070 BKN095 BKN200 31/19 A2994 RMK AO2 SLP128 T03110194
Pressure 29.91 in
Visibility 10.0 miles
Clouds Scattered Clouds 5500 ft
Mostly Cloudy 7000 ft
Mostly Cloudy 9500 ft
Mostly Cloudy 20000 ft
Heat Index 93 °F
Dew Point 68 °F
Humidity 51%
Rainfall 0.00 in
Snow Depth Not available.
UV 1.0 out of 12
Pollen 6.60 out of 12
Air Quality Not available.
Flu Activity Not available.
METAR KAUS 012253Z 11013KT 10SM SCT055 BKN070 BKN095 BKN200 31/19 A2994 RMK AO2 SLP128 T03110194
Nowcast | as of 5:01 PM CDT on September 1, 2015

Through 7 PM...stray to isolated showers and thunderstorms will continue to move west and northwest across portions of south- central Texas. Most of the showers will produce brief light to moderate rainfall amounting from a trace to 1/10 of an inch. An isolated shower or storm could produce brief heavy rainfall up to 1/2 inch and isolated cloud to ground lightning.

×

10-Day Weather Forecast

×

Almanac

Astronomy

Sep. 01, 2015 Rise Set
Actual Time
Civil Twilight
Nautical Twilight
Astronomical Twilight
Moon
Length of Visible Light
Length of Day
Tomorrow will be .
, % of the Moon is Illuminated

Today's Extremes

State Highs State Lows

Community

WunderPhotos

Upload Photos

1,851,640 photos uploaded!

WunderBlogs® & News

Nearby

Air Quality

  Air Quality AQ Index Pollutant
Not available.

Snow Depth

Station Depth Elevation

Earthquake Activity

City Distance Mag. Time & Date
Minimum magnitude displayed is 2.5.

Coastal Water Temperatures

Place Temperature

Stations

Nearby Weather Stations

Station Location Temp. Windchill Dew Point Humidity Wind Precip. Elev Updated Type